Якутск

Карта отелей и гостиниц, располагающихся рядом с аэропортом Якутск :

Якутск Республика Саха (Якутия) 62° 5' 38.5188" N, 129° 46' 34.0788" E
Код аэродрома ИКАО
UEEE
Код аэродрома RU
УЕЕЕ
Координаты
N62.09403° E129.77613°
Превышение над уровнем моря
100
Основная полоса
05/23
Курс магнитный
052,2/232,2
Длина основной ВПП
3406
Ширина основной ВПП
60
Покрытие основной ВПП
Твёрдое
Освещение ВПП
Постоянное
Тип: 
Аэродром
Класс аэродрома: 
Международный
Принадлежность: 
ГА
Статус: 
Действующий
Сайт: 
http://yks.aero/
E-mail аэродрома: 
office@airport-yakutsk.ru
Страна: 
Россия
Регион: 
Республика Саха (Якутия)
Дополнительная информация: 
Оператор: Акционерное общество «Аэропорт Якутск». Международный аэропорт федерального значения в ДФО на Северо-Востоке России. Расположен в 7 км от центра г. Якутска в Гагаринском округе. Военный индекс: XEEE / ЬЕЕЕ. Имеет также неофициальное название «Туймаада» по названию долины, в которой расположен город Якутск и, соответственно, аэропорт. Аэропорт «Якутск» является единственным в мире аэропортом-полигоном для испытаний новой АТ в условиях низких температур.
Схемы аэропортов: 
Погода: 

Авиационная погода в Якутске

Регион: 
Погода METAR: 
UEEE 281200Z 34003MPS CAVOK 03/M05 Q1008 R23L/09//60 NOSIG RMK QFE747
Время наблюдения
2021-09-28T12:00:00Z
Температура C
3.0
Точка росы
-5.0
Направление ветра
340
Скорость ветра (узлы)
6
Метео видимость
6.21
Явления погоды
Условия полета
VFR
Аэропорт подробнее: 

Найти трансфер

С помощью этой формы Вы можете найти трансфер из аэропорта Якутск в город, аэропорт или вокзал:

Карта места

Javascript is required to view this map.

Погода в аэропортах:

Авиационная погода в Магнитогорске

Погода METAR: 
USCM 281200Z 03010MPS 4500 -SHRA BR OVC010CB 02/02 Q1016 R36/290055 TEMPO 02015MPS 1200 SHSNRA BR VV004 RMK QFE724
Время наблюдения
2021-09-28T12:00:00Z
Температура C
2.0
Точка росы
2.0
Направление ветра
30
Скорость ветра (узлы)
19
Метео видимость
2.8
Явления погоды
-SHRA BR
Условия полета
IFR
Аэропорт подробнее: 

Авиационная погода в Костанае

Регион: 
Погода METAR: 
UAUU 281200Z 04009G15MPS 9999 -RA BKN011 OVC033 04/03 Q1011 R33/290160 NOSIG RMK QFE742/0990
Время наблюдения
2021-09-28T12:00:00Z
Температура C
4.0
Точка росы
3.0
Направление ветра
40
Скорость ветра (узлы)
17
Метео видимость
6.21
Явления погоды
-RA
Условия полета
MVFR
Аэропорт подробнее: 

Авиационная погода в Кокшетау

Регион: 
Погода METAR: 
UACK 281300Z 09010MPS 7000 -DZ OVC006 03/02 Q1010 R02/250250 NOSIG RMK QBB190 QFE734/0978
Время наблюдения
2021-09-28T13:00:00Z
Температура C
3.0
Точка росы
2.0
Направление ветра
90
Скорость ветра (узлы)
19
Метео видимость
4.35
Явления погоды
-DZ
Условия полета
IFR
Аэропорт подробнее: 

Авиационная погода в Братске

Регион: 
Погода METAR: 
UIBB 281200Z 31004MPS 280V340 9999 -SHSN SCT033CB M00/M00 Q1016 R30/290150 NOSIG RMK QFE719/0959
Время наблюдения
2021-09-28T12:00:00Z
Температура C
0.0
Точка росы
0.0
Направление ветра
310
Скорость ветра (узлы)
8
Метео видимость
6.21
Явления погоды
-SHSN
Условия полета
VFR
Аэропорт подробнее: